Nearby METAR Reports

EGNX - East Midlands, United Kingdom
Distance: S 18mi, 28km
Updated: 27/05/2019 02:50
Clear
Clear
 Wind from WSW
Wind: WSW 14 mph , 22 km/h
Temperature: 10°C
Wind Chill: 7°C
Dew Point: 7°C
Humidity: 82%
Barometer: 1010 hPa
Summary: Clear
Visibility: greater than 7 miles , 10 km
2019/05/27 01:50 EGNX 270150Z 24012KT CAVOK 10/07 Q1010
EGCN - Doncaster Sheffi, United Kingdom
Distance: NNE 31mi, 50km
Updated: 27/05/2019 02:50
Few Clouds
Few Clouds
 Wind from WSW
Wind: WSW 14 mph , 22 km/h
Temperature: 13°C
Dew Point: 7°C
Humidity: 67%
Barometer: 1009 hPa
Clouds: Few Clouds
Visibility: 6 miles , 10 km
Cloud details: Few Clouds 1006 m
2019/05/27 01:50 EGCN 270150Z AUTO 25012KT 9999 FEW033/// 13/07 Q1009
EGYE - Barkston Heath R, United Kingdom
Distance: ESE 31mi, 50km
Updated: 24/05/2019 14:50
NOT Current
Few Clouds
Few Clouds
 Wind from WNW
Wind: WNW 14 mph , 22 km/h
Barometer: 1016 hPa
Clouds: Few Clouds
Visibility: 6 miles , 10 km
Cloud details: Few Clouds 1067 m
2019/05/24 13:50 EGYE 241350Z 29012KT 9999 FEW035 ///// Q1016 BLU
 
EGXW - Waddington Raf, United Kingdom
Distance: ENE 33mi, 53km
Updated: 27/05/2019 02:50
Few Clouds
Few Clouds
 Wind from SW
Wind: SW 12 mph , 19 km/h
Temperature: 10°C
Wind Chill: 7°C
Dew Point: 7°C
Humidity: 82%
Barometer: 1008 hPa
Clouds: Few Clouds
Visibility: 6 miles , 10 km
Cloud details: Few Clouds 1524 m
2019/05/27 01:50 EGXW 270150Z AUTO 23010KT 9999 FEW050/// 10/07 Q1008
EGYD - Cranwell Raf, United Kingdom
Distance: E 33mi, 53km
Updated: 27/05/2019 02:50
Clear
Clear
 Wind from WSW
Wind: WSW 17 mph , 28 km/h
Temperature: 10°C
Wind Chill: 7°C
Dew Point: 7°C
Humidity: 82%
Barometer: 1008 hPa
Clouds: Clear
Visibility: 6 miles , 10 km
2019/05/27 01:50 EGYD 270150Z AUTO 25015KT 9999 // NCD 10/07 Q1008
EGXP - Scampton Raf, United Kingdom
Distance: ENE 35mi, 56km
Updated: 27/05/2019 01:50
NOT Current
Clear
Clear
 Wind from WSW
Wind: WSW 10 mph , 17 km/h
Temperature: 9°C
Wind Chill: 7°C
Dew Point: 7°C
Humidity: 87%
Barometer: 1008 hPa
Clouds: Clear
Visibility: 6 miles , 10 km
2019/05/27 00:50 EGXP 270050Z AUTO 24009KT 9999 // NCD 09/07 Q1008
 
EGCC - Manchester Intl, United Kingdom
Distance: WNW 45mi, 72km
Updated: 27/05/2019 02:50
Clear
Clear
 Wind from W
Wind: W 13 mph , 20 km/h
Temperature: 12°C
Dew Point: 7°C
Humidity: 72%
Barometer: 1009 hPa
Clouds: Clear
Visibility: 6 miles , 10 km
2019/05/27 01:50 EGCC 270150Z AUTO 26011KT 9999 NCD 12/07 Q1009
EGBB - Birmingham Airpo, United Kingdom
Distance: SSW 46mi, 74km
Updated: 27/05/2019 02:50
Clear
Clear
 Wind from WSW
Wind: WSW 7 mph , 11 km/h
Temperature: 10°C
Wind Chill: 8°C
Dew Point: 7°C
Humidity: 82%
Barometer: 1011 hPa
Summary: Clear
Visibility: greater than 7 miles , 10 km
2019/05/27 01:50 EGBB 270150Z 24006KT CAVOK 10/07 Q1011
EGXC - Coningsby Raf, United Kingdom
Distance: E 47mi, 75km
Updated: 27/05/2019 02:50
Clear
Clear
 Wind from SW
Wind: SW 7 mph , 11 km/h
Temperature: 10°C
Wind Chill: 8°C
Dew Point: 7°C
Humidity: 82%
Barometer: 1008 hPa
Clouds: Clear
Visibility: 6 miles , 10 km
2019/05/27 01:50 EGXC 270150Z AUTO 23006KT 9999 // NCD 10/07 Q1008
 
EGXT - Wittering Raf, United Kingdom
Distance: SE 47mi, 75km
Updated: 27/05/2019 02:50
Clear
Clear
 Wind from WSW
Wind: WSW 10 mph , 17 km/h
Temperature: 9°C
Wind Chill: 7°C
Dew Point: 6°C
Humidity: 82%
Barometer: 1009 hPa
Clouds: Clear
Visibility: 6 miles , 10 km
2019/05/27 01:50 EGXT 270150Z AUTO 25009KT 9999 NCD 09/06 Q1009
EGNJ - Humberside, United Kingdom
Distance: NE 52mi, 83km
Updated: 27/05/2019 02:50
Clear
Clear
 Wind from SW
Wind: SW 8 mph , 13 km/h
Temperature: 10°C
Wind Chill: 8°C
Dew Point: 7°C
Humidity: 82%
Barometer: 1008 hPa
Clouds: Clear
Visibility: 6 miles , 10 km
2019/05/27 01:50 EGNJ 270150Z AUTO 23007KT 9999 NCD 10/07 Q1008
EGWC - Cosford Raf, United Kingdom
Distance: SW 52mi, 83km
Updated: 26/05/2019 15:50
NOT Current
Mostly cloudy
Mostly cloudy
 Wind from WNW
Wind: WNW 13 mph , 20 km/h, Gust: 26 mph , 43 km/h
Temperature: 19°C
Dew Point: 11°C
Humidity: 60%
Barometer: 1011 hPa
Clouds: Mostly cloudy
Visibility: 6 miles , 10 km
Cloud details: Mostly cloudy 762 m
2019/05/26 14:50 EGWC 261450Z 29011G23KT 9999 BKN025 19/11 Q1011 BLU
 
EGNM - Leeds And Bradfo, United Kingdom
Distance: NNW 57mi, 91km
Updated: 27/05/2019 02:50
Partly cloudy
Partly cloudy
 Wind from WSW
Wind: WSW 14 mph , 22 km/h
Temperature: 10°C
Wind Chill: 7°C
Dew Point: 7°C
Humidity: 82%
Barometer: 1007 hPa
Clouds: Partly cloudy
Visibility: 6 miles , 10 km
Cloud details: Partly cloudy 1372 m
2019/05/27 01:50 EGNM 270150Z 25012KT 9999 SCT045 10/07 Q1007
EGOS - Shawbury Raf, United Kingdom
Distance: WSW 60mi, 97km
Updated: 27/05/2019 02:50
Clear
Clear
 Wind from WSW
Wind: WSW 8 mph , 13 km/h
Temperature: 10°C
Wind Chill: 8°C
Dew Point: 7°C
Humidity: 82%
Barometer: 1010 hPa
Clouds: Clear
Visibility: 6 miles , 10 km
2019/05/27 01:50 EGOS 270150Z AUTO 24007KT 9999 NCD 10/07 Q1010
EGYH - Holbeach (aut), United Kingdom
Distance: ESE 62mi, 99km
Updated: 24/05/2019 09:50
NOT Current
Few Clouds
Few Clouds
 Wind from NNW
Wind: NNW 15 mph , 24 km/h
Temperature: 17°C
Dew Point: 9°C
Humidity: 59%
Barometer: 1016 hPa
Clouds: Few Clouds
Visibility: 6 miles , 10 km
Cloud details: Few Clouds 914 m
2019/05/24 08:50 EGYH 240850Z 34013KT 9999 FEW030 17/09 Q1016 BLU
 
EGXV - Leconfield (aut), United Kingdom
Distance: NNE 65mi, 105km
Updated: 27/05/2019 02:50
Few Clouds
Few Clouds
 Wind from WSW
Wind: WSW 13 mph , 20 km/h
Temperature: 10°C
Wind Chill: 7°C
Dew Point: 7°C
Humidity: 82%
Barometer: 1006 hPa
Clouds: Few Clouds
Visibility: 6 miles , 10 km
Cloud details: Few Clouds 7315 m
2019/05/27 01:50 EGXV 270150Z AUTO 24011KT 9999 FEW240/// 10/07 Q1006
EGXS - Donna Nook Raf, United Kingdom
Distance: ENE 66mi, 106km
Updated: 27/05/2019 01:50
NOT Current
Clear
Clear
 Wind from SW
Wind: SW 9 mph , 15 km/h
Temperature: 9°C
Wind Chill: 7°C
Dew Point: 7°C
Humidity: 87%
Barometer: 1008 hPa
Clouds: Clear
Visibility: 6 miles , 10 km
2019/05/27 00:50 EGXS 270050Z AUTO 22008KT 9999 // NCD 09/07 Q1008
EGGP - Liverpool Airpor, United Kingdom
Distance: WNW 67mi, 107km
Updated: 27/05/2019 02:50
Clear
Clear
 Wind from W
Wind: W 15 mph , 24 km/h
Temperature: 12°C
Dew Point: 9°C
Humidity: 82%
Barometer: 1009 hPa
Summary: Clear
Visibility: greater than 7 miles , 10 km
2019/05/27 01:50 EGGP 270150Z 26013KT CAVOK 12/09 Q1009
 
EGXU - Linton-On-Ouse R, United Kingdom
Distance: N 68mi, 109km
Updated: 27/05/2019 02:50
Partly cloudy
Partly cloudy
 Wind from WSW
Wind: WSW 14 mph , 22 km/h
Temperature: 12°C
Dew Point: 7°C
Humidity: 72%
Barometer: 1007 hPa
Clouds: Partly cloudy
Visibility: 6 miles , 10 km
Cloud details: Mostly cloudy 1341 m
Partly cloudy 7315 m
2019/05/27 01:50 EGXU 270150Z AUTO 25012KT 9999 // BKN044/// SCT240/// 12/07 Q1007
EGNR - Hawarden (aut), United Kingdom
Distance: W 70mi, 112km
Updated: 26/05/2019 18:50
NOT Current
Partly cloudy
Partly cloudy
 Wind from WNW
Wind: WNW 9 mph , 15 km/h
Temperature: 16°C
Dew Point: 7°C
Humidity: 55%
Barometer: 1012 hPa
Clouds: Partly cloudy
Visibility: 6 miles , 10 km
Cloud details: Few Clouds 701 m
Partly cloudy 1311 m
2019/05/26 17:50 EGNR 261750Z 30008KT 250V340 9999 FEW023 SCT043 16/07 Q1012